sensor_id;sensor_type;location;lat;lon;timestamp;temperature;humidity
18888;DHT22;9576;47.792;9.628;2024-03-08T00:02:52;2.10;99.90
18888;DHT22;9576;47.792;9.628;2024-03-08T00:05:54;2.00;99.90
18888;DHT22;9576;47.792;9.628;2024-03-08T00:08:56;2.00;99.90
18888;DHT22;9576;47.792;9.628;2024-03-08T00:11:58;2.00;99.90
18888;DHT22;9576;47.792;9.628;2024-03-08T00:14:59;2.00;99.90
18888;DHT22;9576;47.792;9.628;2024-03-08T00:18:02;2.00;99.90
18888;DHT22;9576;47.792;9.628;2024-03-08T00:21:04;2.00;99.90
18888;DHT22;9576;47.792;9.628;2024-03-08T00:24:06;1.90;99.90
18888;DHT22;9576;47.792;9.628;2024-03-08T00:27:07;1.90;99.90
18888;DHT22;9576;47.792;9.628;2024-03-08T00:30:09;1.80;99.90
18888;DHT22;9576;47.792;9.628;2024-03-08T00:33:15;1.80;99.90
18888;DHT22;9576;47.792;9.628;2024-03-08T00:36:16;1.80;99.90
18888;DHT22;9576;47.792;9.628;2024-03-08T00:39:18;1.80;99.90
18888;DHT22;9576;47.792;9.628;2024-03-08T00:42:21;1.80;99.90
18888;DHT22;9576;47.792;9.628;2024-03-08T00:45:23;1.80;99.90
18888;DHT22;9576;47.792;9.628;2024-03-08T00:48:26;1.70;99.90
18888;DHT22;9576;47.792;9.628;2024-03-08T00:51:28;1.70;99.90
18888;DHT22;9576;47.792;9.628;2024-03-08T00:54:30;1.70;99.90
18888;DHT22;9576;47.792;9.628;2024-03-08T00:57:31;1.70;99.90
18888;DHT22;9576;47.792;9.628;2024-03-08T01:00:34;1.70;99.90
18888;DHT22;9576;47.792;9.628;2024-03-08T01:03:37;1.60;99.90
18888;DHT22;9576;47.792;9.628;2024-03-08T01:06:38;1.60;99.90
18888;DHT22;9576;47.792;9.628;2024-03-08T01:09:40;1.60;99.90
18888;DHT22;9576;47.792;9.628;2024-03-08T01:12:42;1.60;99.90
18888;DHT22;9576;47.792;9.628;2024-03-08T01:15:44;1.60;99.90
18888;DHT22;9576;47.792;9.628;2024-03-08T01:18:47;1.50;99.90
18888;DHT22;9576;47.792;9.628;2024-03-08T01:21:49;1.50;99.90
18888;DHT22;9576;47.792;9.628;2024-03-08T01:24:51;1.50;99.90
18888;DHT22;9576;47.792;9.628;2024-03-08T01:27:52;1.40;99.90
18888;DHT22;9576;47.792;9.628;2024-03-08T01:30:54;1.40;99.90
18888;DHT22;9576;47.792;9.628;2024-03-08T01:33:58;1.40;99.90
18888;DHT22;9576;47.792;9.628;2024-03-08T01:37:00;1.30;99.90
18888;DHT22;9576;47.792;9.628;2024-03-08T01:40:01;1.30;99.90
18888;DHT22;9576;47.792;9.628;2024-03-08T01:43:16;1.30;99.90
18888;DHT22;9576;47.792;9.628;2024-03-08T01:46:19;1.30;99.90
18888;DHT22;9576;47.792;9.628;2024-03-08T01:49:23;1.30;99.90
18888;DHT22;9576;47.792;9.628;2024-03-08T01:52:25;1.30;99.90
18888;DHT22;9576;47.792;9.628;2024-03-08T01:55:27;1.20;99.90
18888;DHT22;9576;47.792;9.628;2024-03-08T01:58:29;1.20;99.90
18888;DHT22;9576;47.792;9.628;2024-03-08T02:01:33;1.20;99.90
18888;DHT22;9576;47.792;9.628;2024-03-08T02:04:36;1.20;99.90
18888;DHT22;9576;47.792;9.628;2024-03-08T02:07:40;1.10;99.90
18888;DHT22;9576;47.792;9.628;2024-03-08T02:10:44;1.10;99.90
18888;DHT22;9576;47.792;9.628;2024-03-08T02:13:46;1.00;99.90
18888;DHT22;9576;47.792;9.628;2024-03-08T02:16:47;1.10;99.90
18888;DHT22;9576;47.792;9.628;2024-03-08T02:19:52;1.00;99.90
18888;DHT22;9576;47.792;9.628;2024-03-08T02:22:55;0.90;99.90
18888;DHT22;9576;47.792;9.628;2024-03-08T02:25:57;0.90;99.90
18888;DHT22;9576;47.792;9.628;2024-03-08T02:28:59;0.90;99.90
18888;DHT22;9576;47.792;9.628;2024-03-08T02:32:00;0.80;99.90
18888;DHT22;9576;47.792;9.628;2024-03-08T02:35:03;0.80;99.90
18888;DHT22;9576;47.792;9.628;2024-03-08T02:38:08;0.80;99.90
18888;DHT22;9576;47.792;9.628;2024-03-08T02:41:09;0.80;99.90
18888;DHT22;9576;47.792;9.628;2024-03-08T02:44:11;0.90;99.90
18888;DHT22;9576;47.792;9.628;2024-03-08T02:47:13;0.90;99.90
18888;DHT22;9576;47.792;9.628;2024-03-08T02:50:16;0.90;99.90
18888;DHT22;9576;47.792;9.628;2024-03-08T02:53:19;1.00;99.90
18888;DHT22;9576;47.792;9.628;2024-03-08T02:56:20;0.90;99.90
18888;DHT22;9576;47.792;9.628;2024-03-08T02:59:22;1.00;99.90
18888;DHT22;9576;47.792;9.628;2024-03-08T03:02:24;0.90;99.90
18888;DHT22;9576;47.792;9.628;2024-03-08T03:05:26;1.00;99.90
18888;DHT22;9576;47.792;9.628;2024-03-08T03:08:29;1.00;99.90
18888;DHT22;9576;47.792;9.628;2024-03-08T03:11:31;1.00;99.90
18888;DHT22;9576;47.792;9.628;2024-03-08T03:14:33;1.00;99.90
18888;DHT22;9576;47.792;9.628;2024-03-08T03:17:38;1.00;99.90
18888;DHT22;9576;47.792;9.628;2024-03-08T03:20:40;0.80;99.90
18888;DHT22;9576;47.792;9.628;2024-03-08T03:23:44;0.90;99.90
18888;DHT22;9576;47.792;9.628;2024-03-08T03:26:46;0.80;99.90
18888;DHT22;9576;47.792;9.628;2024-03-08T03:29:49;0.80;99.90
18888;DHT22;9576;47.792;9.628;2024-03-08T03:32:52;0.80;99.90
18888;DHT22;9576;47.792;9.628;2024-03-08T03:35:54;0.80;99.90
18888;DHT22;9576;47.792;9.628;2024-03-08T03:38:57;0.80;99.90
18888;DHT22;9576;47.792;9.628;2024-03-08T03:42:10;0.70;99.90
18888;DHT22;9576;47.792;9.628;2024-03-08T03:45:12;0.80;99.90
18888;DHT22;9576;47.792;9.628;2024-03-08T03:48:14;0.80;99.90
18888;DHT22;9576;47.792;9.628;2024-03-08T03:51:16;0.80;99.90
18888;DHT22;9576;47.792;9.628;2024-03-08T03:54:19;0.70;99.90
18888;DHT22;9576;47.792;9.628;2024-03-08T03:57:21;0.80;99.90
18888;DHT22;9576;47.792;9.628;2024-03-08T04:00:23;0.70;99.90
18888;DHT22;9576;47.792;9.628;2024-03-08T04:03:27;0.70;99.90
18888;DHT22;9576;47.792;9.628;2024-03-08T04:06:28;0.70;99.90
18888;DHT22;9576;47.792;9.628;2024-03-08T04:09:31;0.70;99.90
18888;DHT22;9576;47.792;9.628;2024-03-08T04:12:33;0.70;99.90
18888;DHT22;9576;47.792;9.628;2024-03-08T04:15:35;0.70;99.90
18888;DHT22;9576;47.792;9.628;2024-03-08T04:18:38;0.50;99.90
18888;DHT22;9576;47.792;9.628;2024-03-08T04:21:39;0.50;99.90
18888;DHT22;9576;47.792;9.628;2024-03-08T04:24:43;0.50;99.90
18888;DHT22;9576;47.792;9.628;2024-03-08T04:27:46;0.50;99.90
18888;DHT22;9576;47.792;9.628;2024-03-08T04:30:49;0.50;99.90
18888;DHT22;9576;47.792;9.628;2024-03-08T04:33:51;0.50;99.90
18888;DHT22;9576;47.792;9.628;2024-03-08T04:36:52;0.50;99.90
18888;DHT22;9576;47.792;9.628;2024-03-08T04:39:55;0.50;99.90
18888;DHT22;9576;47.792;9.628;2024-03-08T04:42:57;0.50;99.90
18888;DHT22;9576;47.792;9.628;2024-03-08T04:46:00;0.50;99.90
18888;DHT22;9576;47.792;9.628;2024-03-08T04:49:04;0.60;99.90
18888;DHT22;9576;47.792;9.628;2024-03-08T04:52:07;0.70;99.90
18888;DHT22;9576;47.792;9.628;2024-03-08T04:55:10;0.70;99.90
18888;DHT22;9576;47.792;9.628;2024-03-08T04:58:12;0.80;99.90
18888;DHT22;9576;47.792;9.628;2024-03-08T05:01:14;0.80;99.90
18888;DHT22;9576;47.792;9.628;2024-03-08T05:04:15;0.80;99.90
18888;DHT22;9576;47.792;9.628;2024-03-08T05:07:17;0.90;99.90
18888;DHT22;9576;47.792;9.628;2024-03-08T05:10:21;0.90;99.90
18888;DHT22;9576;47.792;9.628;2024-03-08T05:13:22;1.00;99.90
18888;DHT22;9576;47.792;9.628;2024-03-08T05:16:24;1.00;99.90
18888;DHT22;9576;47.792;9.628;2024-03-08T05:19:26;1.00;99.90
18888;DHT22;9576;47.792;9.628;2024-03-08T05:22:30;1.00;99.90
18888;DHT22;9576;47.792;9.628;2024-03-08T05:25:33;1.20;99.90
18888;DHT22;9576;47.792;9.628;2024-03-08T05:28:35;1.20;99.90
18888;DHT22;9576;47.792;9.628;2024-03-08T05:31:45;1.20;99.90
18888;DHT22;9576;47.792;9.628;2024-03-08T05:34:47;1.30;99.90
18888;DHT22;9576;47.792;9.628;2024-03-08T05:37:49;1.40;99.90
18888;DHT22;9576;47.792;9.628;2024-03-08T05:40:52;1.40;99.90
18888;DHT22;9576;47.792;9.628;2024-03-08T05:43:53;1.50;99.90
18888;DHT22;9576;47.792;9.628;2024-03-08T05:46:55;1.60;99.90
18888;DHT22;9576;47.792;9.628;2024-03-08T05:49:57;1.60;99.90
18888;DHT22;9576;47.792;9.628;2024-03-08T05:53:00;1.70;99.90
18888;DHT22;9576;47.792;9.628;2024-03-08T05:56:03;1.70;99.90
18888;DHT22;9576;47.792;9.628;2024-03-08T05:59:05;1.70;99.90
18888;DHT22;9576;47.792;9.628;2024-03-08T06:02:07;1.70;99.90
18888;DHT22;9576;47.792;9.628;2024-03-08T06:05:09;1.50;99.90
18888;DHT22;9576;47.792;9.628;2024-03-08T06:08:10;1.50;99.90
18888;DHT22;9576;47.792;9.628;2024-03-08T06:11:16;1.40;99.90
18888;DHT22;9576;47.792;9.628;2024-03-08T06:14:18;1.40;99.90
18888;DHT22;9576;47.792;9.628;2024-03-08T06:17:20;1.50;99.90
18888;DHT22;9576;47.792;9.628;2024-03-08T06:20:25;1.60;99.90
18888;DHT22;9576;47.792;9.628;2024-03-08T06:23:27;1.60;99.90
18888;DHT22;9576;47.792;9.628;2024-03-08T06:26:30;1.60;99.90
18888;DHT22;9576;47.792;9.628;2024-03-08T06:29:32;1.70;99.90
18888;DHT22;9576;47.792;9.628;2024-03-08T06:32:33;1.80;99.90
18888;DHT22;9576;47.792;9.628;2024-03-08T06:35:35;1.80;99.90
18888;DHT22;9576;47.792;9.628;2024-03-08T06:38:38;1.80;99.90
18888;DHT22;9576;47.792;9.628;2024-03-08T06:41:44;1.80;99.90
18888;DHT22;9576;47.792;9.628;2024-03-08T06:44:45;1.80;99.90
18888;DHT22;9576;47.792;9.628;2024-03-08T06:47:50;1.90;99.90
18888;DHT22;9576;47.792;9.628;2024-03-08T06:50:51;1.90;99.90
18888;DHT22;9576;47.792;9.628;2024-03-08T06:53:53;2.00;99.90
18888;DHT22;9576;47.792;9.628;2024-03-08T06:56:56;2.00;99.90
18888;DHT22;9576;47.792;9.628;2024-03-08T06:59:58;2.10;99.90
18888;DHT22;9576;47.792;9.628;2024-03-08T07:02:59;2.00;99.90
18888;DHT22;9576;47.792;9.628;2024-03-08T07:06:01;2.00;99.90
18888;DHT22;9576;47.792;9.628;2024-03-08T07:09:07;1.80;99.90
18888;DHT22;9576;47.792;9.628;2024-03-08T07:12:10;1.80;99.90
18888;DHT22;9576;47.792;9.628;2024-03-08T07:15:13;1.70;99.90
18888;DHT22;9576;47.792;9.628;2024-03-08T07:18:16;1.70;99.90
18888;DHT22;9576;47.792;9.628;2024-03-08T07:21:17;1.70;99.90
18888;DHT22;9576;47.792;9.628;2024-03-08T07:24:20;1.90;99.90
18888;DHT22;9576;47.792;9.628;2024-03-08T07:27:40;2.00;99.90
18888;DHT22;9576;47.792;9.628;2024-03-08T07:30:42;2.10;99.90
18888;DHT22;9576;47.792;9.628;2024-03-08T07:34:08;2.10;99.90
18888;DHT22;9576;47.792;9.628;2024-03-08T07:37:10;2.20;99.90
18888;DHT22;9576;47.792;9.628;2024-03-08T07:40:12;2.20;99.90
18888;DHT22;9576;47.792;9.628;2024-03-08T07:43:15;2.20;99.90
18888;DHT22;9576;47.792;9.628;2024-03-08T07:46:17;2.30;99.90
18888;DHT22;9576;47.792;9.628;2024-03-08T07:49:19;2.40;99.90
18888;DHT22;9576;47.792;9.628;2024-03-08T07:52:20;2.50;99.90
18888;DHT22;9576;47.792;9.628;2024-03-08T07:55:22;2.50;99.90
18888;DHT22;9576;47.792;9.628;2024-03-08T07:58:25;2.60;99.90
18888;DHT22;9576;47.792;9.628;2024-03-08T08:01:28;2.60;99.90
18888;DHT22;9576;47.792;9.628;2024-03-08T08:04:30;2.40;99.90
18888;DHT22;9576;47.792;9.628;2024-03-08T08:07:32;2.50;99.90
18888;DHT22;9576;47.792;9.628;2024-03-08T08:10:34;2.60;99.90
18888;DHT22;9576;47.792;9.628;2024-03-08T08:13:37;2.70;99.90
18888;DHT22;9576;47.792;9.628;2024-03-08T08:16:39;2.80;99.90
18888;DHT22;9576;47.792;9.628;2024-03-08T08:19:42;2.90;99.90
18888;DHT22;9576;47.792;9.628;2024-03-08T08:22:44;2.80;99.90
18888;DHT22;9576;47.792;9.628;2024-03-08T08:25:48;2.80;99.90
18888;DHT22;9576;47.792;9.628;2024-03-08T08:28:51;2.80;99.90
18888;DHT22;9576;47.792;9.628;2024-03-08T08:31:54;2.90;99.90
18888;DHT22;9576;47.792;9.628;2024-03-08T08:34:59;3.00;99.90
18888;DHT22;9576;47.792;9.628;2024-03-08T08:38:01;3.00;99.90
18888;DHT22;9576;47.792;9.628;2024-03-08T08:41:04;3.10;99.90
18888;DHT22;9576;47.792;9.628;2024-03-08T08:44:07;3.10;99.90
18888;DHT22;9576;47.792;9.628;2024-03-08T08:47:10;3.00;99.90
18888;DHT22;9576;47.792;9.628;2024-03-08T08:50:13;2.90;99.90
18888;DHT22;9576;47.792;9.628;2024-03-08T08:53:16;2.90;99.90
18888;DHT22;9576;47.792;9.628;2024-03-08T08:56:18;2.90;99.90
18888;DHT22;9576;47.792;9.628;2024-03-08T08:59:21;2.80;99.90
18888;DHT22;9576;47.792;9.628;2024-03-08T09:02:25;3.00;99.90
18888;DHT22;9576;47.792;9.628;2024-03-08T09:05:27;3.00;99.90
18888;DHT22;9576;47.792;9.628;2024-03-08T09:08:28;3.00;99.90
18888;DHT22;9576;47.792;9.628;2024-03-08T09:11:30;3.20;99.90
18888;DHT22;9576;47.792;9.628;2024-03-08T09:14:33;3.20;99.90
18888;DHT22;9576;47.792;9.628;2024-03-08T09:17:35;3.20;99.90
18888;DHT22;9576;47.792;9.628;2024-03-08T09:20:40;3.40;99.90
18888;DHT22;9576;47.792;9.628;2024-03-08T09:23:42;3.40;99.90
18888;DHT22;9576;47.792;9.628;2024-03-08T09:26:45;3.30;99.90
18888;DHT22;9576;47.792;9.628;2024-03-08T09:29:48;3.50;99.90
18888;DHT22;9576;47.792;9.628;2024-03-08T09:32:49;3.60;99.90
18888;DHT22;9576;47.792;9.628;2024-03-08T09:35:52;3.60;99.90
18888;DHT22;9576;47.792;9.628;2024-03-08T09:38:54;3.60;99.90
18888;DHT22;9576;47.792;9.628;2024-03-08T09:41:55;3.80;99.90
18888;DHT22;9576;47.792;9.628;2024-03-08T09:44:59;3.70;99.90
18888;DHT22;9576;47.792;9.628;2024-03-08T09:48:01;3.90;99.90
18888;DHT22;9576;47.792;9.628;2024-03-08T09:51:03;4.00;99.90
18888;DHT22;9576;47.792;9.628;2024-03-08T09:54:06;4.10;99.90
18888;DHT22;9576;47.792;9.628;2024-03-08T09:57:08;4.10;99.90
18888;DHT22;9576;47.792;9.628;2024-03-08T10:00:12;4.20;99.90
18888;DHT22;9576;47.792;9.628;2024-03-08T10:03:24;4.40;99.90
18888;DHT22;9576;47.792;9.628;2024-03-08T10:06:26;4.50;99.90
18888;DHT22;9576;47.792;9.628;2024-03-08T10:09:28;4.60;99.90
18888;DHT22;9576;47.792;9.628;2024-03-08T10:12:29;4.70;99.90
18888;DHT22;9576;47.792;9.628;2024-03-08T10:15:33;4.70;99.90
18888;DHT22;9576;47.792;9.628;2024-03-08T10:18:35;4.70;99.90
18888;DHT22;9576;47.792;9.628;2024-03-08T10:21:46;4.50;99.90
18888;DHT22;9576;47.792;9.628;2024-03-08T10:24:49;4.60;99.90
18888;DHT22;9576;47.792;9.628;2024-03-08T10:27:51;4.70;99.90
18888;DHT22;9576;47.792;9.628;2024-03-08T10:30:54;4.90;99.90
18888;DHT22;9576;47.792;9.628;2024-03-08T10:33:57;5.00;99.90
18888;DHT22;9576;47.792;9.628;2024-03-08T10:37:00;5.10;99.90
18888;DHT22;9576;47.792;9.628;2024-03-08T10:40:04;5.10;99.90
18888;DHT22;9576;47.792;9.628;2024-03-08T10:43:13;5.20;99.90
18888;DHT22;9576;47.792;9.628;2024-03-08T10:46:21;5.10;99.90
18888;DHT22;9576;47.792;9.628;2024-03-08T10:49:25;5.30;99.90
18888;DHT22;9576;47.792;9.628;2024-03-08T10:52:27;5.50;99.90
18888;DHT22;9576;47.792;9.628;2024-03-08T10:55:28;5.50;99.90
18888;DHT22;9576;47.792;9.628;2024-03-08T10:58:31;5.50;99.90
18888;DHT22;9576;47.792;9.628;2024-03-08T11:01:36;5.60;99.90
18888;DHT22;9576;47.792;9.628;2024-03-08T11:04:38;5.80;99.90
18888;DHT22;9576;47.792;9.628;2024-03-08T11:07:40;5.70;99.90
18888;DHT22;9576;47.792;9.628;2024-03-08T11:10:46;5.80;99.90
18888;DHT22;9576;47.792;9.628;2024-03-08T11:13:47;6.10;99.90
18888;DHT22;9576;47.792;9.628;2024-03-08T11:16:50;6.50;99.90
18888;DHT22;9576;47.792;9.628;2024-03-08T11:19:52;6.40;99.90
18888;DHT22;9576;47.792;9.628;2024-03-08T11:22:59;6.50;99.90
18888;DHT22;9576;47.792;9.628;2024-03-08T11:26:01;6.40;99.90
18888;DHT22;9576;47.792;9.628;2024-03-08T11:32:32;6.70;99.90
18888;DHT22;9576;47.792;9.628;2024-03-08T11:35:34;6.80;99.90
18888;DHT22;9576;47.792;9.628;2024-03-08T11:38:37;6.90;99.90
18888;DHT22;9576;47.792;9.628;2024-03-08T11:41:41;7.00;99.90
18888;DHT22;9576;47.792;9.628;2024-03-08T11:44:45;7.30;99.90
18888;DHT22;9576;47.792;9.628;2024-03-08T11:47:49;7.40;99.90
18888;DHT22;9576;47.792;9.628;2024-03-08T11:50:58;7.60;99.90
18888;DHT22;9576;47.792;9.628;2024-03-08T11:54:00;7.70;99.90
18888;DHT22;9576;47.792;9.628;2024-03-08T11:57:03;7.80;99.90
18888;DHT22;9576;47.792;9.628;2024-03-08T12:00:05;8.00;99.90
18888;DHT22;9576;47.792;9.628;2024-03-08T12:03:09;8.30;99.90
18888;DHT22;9576;47.792;9.628;2024-03-08T12:06:11;8.30;99.90
18888;DHT22;9576;47.792;9.628;2024-03-08T12:09:13;8.60;99.90
18888;DHT22;9576;47.792;9.628;2024-03-08T12:12:16;8.70;99.90
18888;DHT22;9576;47.792;9.628;2024-03-08T12:15:18;8.80;99.90
18888;DHT22;9576;47.792;9.628;2024-03-08T12:18:21;9.00;99.90
18888;DHT22;9576;47.792;9.628;2024-03-08T12:21:23;9.40;99.90
18888;DHT22;9576;47.792;9.628;2024-03-08T12:24:29;9.70;99.90
18888;DHT22;9576;47.792;9.628;2024-03-08T12:27:31;9.50;99.90
18888;DHT22;9576;47.792;9.628;2024-03-08T12:30:33;9.40;99.90
18888;DHT22;9576;47.792;9.628;2024-03-08T12:33:36;9.40;99.90
18888;DHT22;9576;47.792;9.628;2024-03-08T12:36:38;9.40;99.90
18888;DHT22;9576;47.792;9.628;2024-03-08T12:39:45;9.40;99.90
18888;DHT22;9576;47.792;9.628;2024-03-08T12:42:46;9.50;99.90
18888;DHT22;9576;47.792;9.628;2024-03-08T12:45:48;9.70;99.90
18888;DHT22;9576;47.792;9.628;2024-03-08T12:48:51;9.80;99.90
18888;DHT22;9576;47.792;9.628;2024-03-08T12:51:55;9.70;99.90
18888;DHT22;9576;47.792;9.628;2024-03-08T12:54:57;10.00;99.90
18888;DHT22;9576;47.792;9.628;2024-03-08T12:58:03;10.10;99.90
18888;DHT22;9576;47.792;9.628;2024-03-08T13:01:07;10.20;99.90
18888;DHT22;9576;47.792;9.628;2024-03-08T13:04:10;10.30;99.90
18888;DHT22;9576;47.792;9.628;2024-03-08T13:07:13;10.50;99.90
18888;DHT22;9576;47.792;9.628;2024-03-08T13:10:17;10.40;99.90
18888;DHT22;9576;47.792;9.628;2024-03-08T13:13:20;10.50;99.90
18888;DHT22;9576;47.792;9.628;2024-03-08T13:16:23;10.70;99.90
18888;DHT22;9576;47.792;9.628;2024-03-08T13:19:26;10.70;99.90
18888;DHT22;9576;47.792;9.628;2024-03-08T13:22:28;10.50;99.90
18888;DHT22;9576;47.792;9.628;2024-03-08T13:25:30;10.70;99.90
18888;DHT22;9576;47.792;9.628;2024-03-08T13:28:32;10.70;99.90
18888;DHT22;9576;47.792;9.628;2024-03-08T13:31:37;10.70;99.90
18888;DHT22;9576;47.792;9.628;2024-03-08T13:34:42;10.70;99.90
18888;DHT22;9576;47.792;9.628;2024-03-08T13:37:43;10.80;99.90
18888;DHT22;9576;47.792;9.628;2024-03-08T13:40:45;11.00;99.90
18888;DHT22;9576;47.792;9.628;2024-03-08T13:43:47;11.50;99.90
18888;DHT22;9576;47.792;9.628;2024-03-08T13:46:50;11.40;99.90
18888;DHT22;9576;47.792;9.628;2024-03-08T13:49:53;11.50;99.90
18888;DHT22;9576;47.792;9.628;2024-03-08T13:52:55;11.80;99.90
18888;DHT22;9576;47.792;9.628;2024-03-08T13:55:57;12.00;99.90
18888;DHT22;9576;47.792;9.628;2024-03-08T13:58:59;12.00;99.90
18888;DHT22;9576;47.792;9.628;2024-03-08T14:02:01;12.40;99.90
18888;DHT22;9576;47.792;9.628;2024-03-08T14:05:05;12.50;99.90
18888;DHT22;9576;47.792;9.628;2024-03-08T14:08:08;12.70;99.90
18888;DHT22;9576;47.792;9.628;2024-03-08T14:11:12;13.30;99.90
18888;DHT22;9576;47.792;9.628;2024-03-08T14:14:14;13.30;99.90
18888;DHT22;9576;47.792;9.628;2024-03-08T14:17:15;13.30;99.90
18888;DHT22;9576;47.792;9.628;2024-03-08T14:20:18;13.80;99.90
18888;DHT22;9576;47.792;9.628;2024-03-08T14:23:20;13.80;99.90
18888;DHT22;9576;47.792;9.628;2024-03-08T14:26:22;13.90;99.90
18888;DHT22;9576;47.792;9.628;2024-03-08T14:29:24;14.20;99.90
18888;DHT22;9576;47.792;9.628;2024-03-08T14:32:29;14.30;99.90
18888;DHT22;9576;47.792;9.628;2024-03-08T14:35:32;14.40;99.90
18888;DHT22;9576;47.792;9.628;2024-03-08T14:38:34;14.20;99.90
18888;DHT22;9576;47.792;9.628;2024-03-08T14:41:38;14.00;99.90
18888;DHT22;9576;47.792;9.628;2024-03-08T14:44:40;14.50;99.90
18888;DHT22;9576;47.792;9.628;2024-03-08T14:47:42;14.90;99.90
18888;DHT22;9576;47.792;9.628;2024-03-08T14:50:45;15.40;99.90
18888;DHT22;9576;47.792;9.628;2024-03-08T14:53:47;15.90;99.90
18888;DHT22;9576;47.792;9.628;2024-03-08T14:56:49;16.20;99.90
18888;DHT22;9576;47.792;9.628;2024-03-08T14:59:52;15.40;99.90
18888;DHT22;9576;47.792;9.628;2024-03-08T15:02:53;15.80;99.90
18888;DHT22;9576;47.792;9.628;2024-03-08T15:05:56;15.80;99.90
18888;DHT22;9576;47.792;9.628;2024-03-08T15:08:58;15.50;99.90
18888;DHT22;9576;47.792;9.628;2024-03-08T15:12:00;16.20;99.90
18888;DHT22;9576;47.792;9.628;2024-03-08T15:15:01;16.70;99.90
18888;DHT22;9576;47.792;9.628;2024-03-08T15:18:08;17.20;99.90
18888;DHT22;9576;47.792;9.628;2024-03-08T15:21:13;17.40;99.90
18888;DHT22;9576;47.792;9.628;2024-03-08T15:24:18;17.10;99.90
18888;DHT22;9576;47.792;9.628;2024-03-08T15:27:22;16.50;99.90
18888;DHT22;9576;47.792;9.628;2024-03-08T15:30:24;16.00;99.90
18888;DHT22;9576;47.792;9.628;2024-03-08T15:33:26;15.60;99.90
18888;DHT22;9576;47.792;9.628;2024-03-08T15:36:31;15.50;99.90
18888;DHT22;9576;47.792;9.628;2024-03-08T15:39:33;15.20;99.90
18888;DHT22;9576;47.792;9.628;2024-03-08T15:42:37;14.60;99.90
18888;DHT22;9576;47.792;9.628;2024-03-08T15:45:40;14.50;99.90
18888;DHT22;9576;47.792;9.628;2024-03-08T15:48:42;14.60;99.90
18888;DHT22;9576;47.792;9.628;2024-03-08T15:51:45;14.90;99.90
18888;DHT22;9576;47.792;9.628;2024-03-08T15:54:47;15.20;99.90
18888;DHT22;9576;47.792;9.628;2024-03-08T15:57:49;15.50;99.90
18888;DHT22;9576;47.792;9.628;2024-03-08T16:00:51;15.70;99.90
18888;DHT22;9576;47.792;9.628;2024-03-08T16:03:52;15.40;99.90
18888;DHT22;9576;47.792;9.628;2024-03-08T16:06:56;15.10;99.90
18888;DHT22;9576;47.792;9.628;2024-03-08T16:09:58;15.00;99.90
18888;DHT22;9576;47.792;9.628;2024-03-08T16:12:59;15.50;99.90
18888;DHT22;9576;47.792;9.628;2024-03-08T16:16:04;16.20;99.90
18888;DHT22;9576;47.792;9.628;2024-03-08T16:19:06;16.00;99.90
18888;DHT22;9576;47.792;9.628;2024-03-08T16:22:09;15.10;99.90
18888;DHT22;9576;47.792;9.628;2024-03-08T16:25:11;13.90;99.90
18888;DHT22;9576;47.792;9.628;2024-03-08T16:28:14;13.10;99.90
18888;DHT22;9576;47.792;9.628;2024-03-08T16:31:15;12.10;99.90
18888;DHT22;9576;47.792;9.628;2024-03-08T16:34:17;11.40;99.90
18888;DHT22;9576;47.792;9.628;2024-03-08T16:37:20;11.20;99.90
18888;DHT22;9576;47.792;9.628;2024-03-08T16:40:22;11.30;99.90
18888;DHT22;9576;47.792;9.628;2024-03-08T16:43:24;11.40;99.90
18888;DHT22;9576;47.792;9.628;2024-03-08T16:46:26;11.10;99.90
18888;DHT22;9576;47.792;9.628;2024-03-08T16:49:27;10.90;99.90
18888;DHT22;9576;47.792;9.628;2024-03-08T16:52:32;10.70;99.90
18888;DHT22;9576;47.792;9.628;2024-03-08T16:55:33;10.50;99.90
18888;DHT22;9576;47.792;9.628;2024-03-08T16:58:35;10.20;99.90
18888;DHT22;9576;47.792;9.628;2024-03-08T17:01:37;9.80;99.90
18888;DHT22;9576;47.792;9.628;2024-03-08T17:04:41;9.60;99.90
18888;DHT22;9576;47.792;9.628;2024-03-08T17:07:44;9.40;99.90
18888;DHT22;9576;47.792;9.628;2024-03-08T17:10:48;9.20;99.90
18888;DHT22;9576;47.792;9.628;2024-03-08T17:13:50;9.10;99.90
18888;DHT22;9576;47.792;9.628;2024-03-08T17:16:52;8.90;99.90
18888;DHT22;9576;47.792;9.628;2024-03-08T17:19:54;8.70;99.90
18888;DHT22;9576;47.792;9.628;2024-03-08T17:22:57;8.60;99.90
18888;DHT22;9576;47.792;9.628;2024-03-08T17:25:58;8.50;99.90
18888;DHT22;9576;47.792;9.628;2024-03-08T17:29:00;8.50;99.90
18888;DHT22;9576;47.792;9.628;2024-03-08T17:32:03;8.40;99.90
18888;DHT22;9576;47.792;9.628;2024-03-08T17:35:07;8.20;99.90
18888;DHT22;9576;47.792;9.628;2024-03-08T17:38:13;8.20;99.90
18888;DHT22;9576;47.792;9.628;2024-03-08T17:41:19;8.00;99.90
18888;DHT22;9576;47.792;9.628;2024-03-08T17:44:22;7.90;99.90
18888;DHT22;9576;47.792;9.628;2024-03-08T17:47:24;7.80;99.90
18888;DHT22;9576;47.792;9.628;2024-03-08T17:50:26;7.70;99.90
18888;DHT22;9576;47.792;9.628;2024-03-08T17:53:29;7.70;99.90
18888;DHT22;9576;47.792;9.628;2024-03-08T17:56:33;7.70;99.90
18888;DHT22;9576;47.792;9.628;2024-03-08T17:59:35;7.60;99.90
18888;DHT22;9576;47.792;9.628;2024-03-08T18:02:36;7.60;99.90
18888;DHT22;9576;47.792;9.628;2024-03-08T18:05:38;7.60;99.90
18888;DHT22;9576;47.792;9.628;2024-03-08T18:08:43;7.50;99.90
18888;DHT22;9576;47.792;9.628;2024-03-08T18:11:46;7.40;99.90
18888;DHT22;9576;47.792;9.628;2024-03-08T18:14:47;7.40;99.90
18888;DHT22;9576;47.792;9.628;2024-03-08T18:17:49;7.30;99.90
18888;DHT22;9576;47.792;9.628;2024-03-08T18:20:52;7.30;99.90
18888;DHT22;9576;47.792;9.628;2024-03-08T18:23:55;7.20;99.90
18888;DHT22;9576;47.792;9.628;2024-03-08T18:26:57;7.20;99.90
18888;DHT22;9576;47.792;9.628;2024-03-08T18:29:59;7.10;99.90
18888;DHT22;9576;47.792;9.628;2024-03-08T18:33:00;7.00;99.90
18888;DHT22;9576;47.792;9.628;2024-03-08T18:36:02;7.00;99.90
18888;DHT22;9576;47.792;9.628;2024-03-08T18:39:08;6.90;99.90
18888;DHT22;9576;47.792;9.628;2024-03-08T18:42:12;6.80;99.90
18888;DHT22;9576;47.792;9.628;2024-03-08T18:45:14;6.70;99.90
18888;DHT22;9576;47.792;9.628;2024-03-08T18:48:17;6.60;99.90
18888;DHT22;9576;47.792;9.628;2024-03-08T18:51:19;6.50;99.90
18888;DHT22;9576;47.792;9.628;2024-03-08T18:54:22;6.40;99.90
18888;DHT22;9576;47.792;9.628;2024-03-08T18:57:27;6.40;99.90
18888;DHT22;9576;47.792;9.628;2024-03-08T19:00:29;6.30;99.90
18888;DHT22;9576;47.792;9.628;2024-03-08T19:03:36;6.30;99.90
18888;DHT22;9576;47.792;9.628;2024-03-08T19:06:40;6.10;99.90
18888;DHT22;9576;47.792;9.628;2024-03-08T19:09:43;6.00;99.90
18888;DHT22;9576;47.792;9.628;2024-03-08T19:12:46;5.90;99.90
18888;DHT22;9576;47.792;9.628;2024-03-08T19:15:48;5.90;99.90
18888;DHT22;9576;47.792;9.628;2024-03-08T19:18:51;5.80;99.90
18888;DHT22;9576;47.792;9.628;2024-03-08T19:21:54;5.90;99.90
18888;DHT22;9576;47.792;9.628;2024-03-08T19:24:57;5.80;99.90
18888;DHT22;9576;47.792;9.628;2024-03-08T19:27:59;5.80;99.90
18888;DHT22;9576;47.792;9.628;2024-03-08T19:31:01;5.80;99.90
18888;DHT22;9576;47.792;9.628;2024-03-08T19:34:02;5.70;99.90
18888;DHT22;9576;47.792;9.628;2024-03-08T19:37:04;5.50;99.90
18888;DHT22;9576;47.792;9.628;2024-03-08T19:40:11;5.50;99.90
18888;DHT22;9576;47.792;9.628;2024-03-08T19:43:19;5.50;99.90
18888;DHT22;9576;47.792;9.628;2024-03-08T19:46:22;5.50;99.90
18888;DHT22;9576;47.792;9.628;2024-03-08T19:49:23;5.50;99.90
18888;DHT22;9576;47.792;9.628;2024-03-08T19:52:25;5.40;99.90